Time;durP1;ratioP1;P1;durP2;ratioP2;P2;SDS_P1;SDS_P2;PMS_P1;PMS_P2;Temp;Humidity;BMP_temperature;BMP_pressure;BME280_temperature;BME280_humidity;BME280_pressure;Samples;Min_cycle;Max_cycle;Signal;HPM_P1;HPM_P2
2022/09/28 00:02:47;;;;;;;18.70;14.98;;;;;;;10.93;100.00;97104.92;2172099;81;21536;-85
2022/09/28 00:05:47;;;;;;;19.42;15.65;;;;;;;10.91;100.00;97100.42;2168460;81;20992;-85
2022/09/28 00:08:51;;;;;;;18.45;13.60;;;;;;;10.87;100.00;97084.05;2170242;81;21059;-84
2022/09/28 00:11:56;;;;;;;19.85;14.90;;;;;;;10.81;100.00;97095.70;2170835;81;21497;-86
2022/09/28 00:14:57;;;;;;;20.65;14.63;;;;;;;10.75;100.00;97099.19;2182795;81;21598;-85
2022/09/28 00:17:57;;;;;;;18.42;13.35;;;;;;;10.71;100.00;97082.34;2173850;81;21006;-85
2022/09/28 00:20:58;;;;;;;17.40;13.80;;;;;;;10.68;100.00;97077.52;2172217;81;22124;-85
2022/09/28 00:24:11;;;;;;;16.20;12.93;;;;;;;10.65;100.00;97092.36;2165312;81;21092;-85
2022/09/28 00:27:12;;;;;;;15.95;12.90;;;;;;;10.60;100.00;97090.09;2172361;81;21070;-85
2022/09/28 00:30:15;;;;;;;17.98;12.75;;;;;;;10.52;100.00;97091.22;2174096;81;21009;-86
2022/09/28 00:33:15;;;;;;;18.73;13.03;;;;;;;10.47;100.00;97091.05;2173257;81;21113;-85
2022/09/28 00:36:16;;;;;;;16.52;12.18;;;;;;;10.42;100.00;97102.67;2168387;81;21008;-85
2022/09/28 00:39:17;;;;;;;15.28;10.72;;;;;;;10.37;100.00;97099.41;2173845;81;21071;-86
2022/09/28 00:42:18;;;;;;;16.65;12.82;;;;;;;10.36;100.00;97091.27;2175255;81;21010;-86
2022/09/28 00:45:18;;;;;;;15.85;11.78;;;;;;;10.36;100.00;97098.33;2171346;81;21032;-86
2022/09/28 00:48:19;;;;;;;13.65;11.43;;;;;;;10.35;100.00;97103.27;2184220;81;21055;-86
2022/09/28 00:51:20;;;;;;;14.80;11.03;;;;;;;10.32;100.00;97093.22;2163454;81;21499;-85
2022/09/28 00:54:21;;;;;;;10.45;8.63;;;;;;;10.32;100.00;97094.53;2173787;81;21052;-86
2022/09/28 00:57:22;;;;;;;9.70;8.65;;;;;;;10.31;100.00;97087.70;2169057;81;21018;-85
2022/09/28 01:00:23;;;;;;;10.23;8.48;;;;;;;10.28;100.00;97090.25;2179158;81;21334;-85
2022/09/28 01:03:24;;;;;;;10.65;7.87;;;;;;;10.28;100.00;97093.38;2168246;81;21105;-85
2022/09/28 01:06:26;;;;;;;9.35;7.65;;;;;;;10.23;100.00;97086.95;2170421;82;21028;-86
2022/09/28 01:09:27;;;;;;;9.55;7.60;;;;;;;10.17;100.00;97089.13;2170788;81;21602;-86
2022/09/28 01:12:28;;;;;;;9.38;7.83;;;;;;;10.16;100.00;97096.67;2176811;81;21065;-86
2022/09/28 01:15:30;;;;;;;12.23;8.63;;;;;;;10.11;100.00;97091.28;2139045;81;21021;-86
2022/09/28 01:18:30;;;;;;;10.35;8.05;;;;;;;10.07;100.00;97094.55;2174096;81;21114;-85
2022/09/28 01:21:31;;;;;;;10.88;8.00;;;;;;;10.01;100.00;97091.48;2176745;81;21088;-85
2022/09/28 01:24:32;;;;;;;30.80;20.27;;;;;;;9.95;100.00;97094.44;2170375;81;21470;-84
2022/09/28 01:27:35;;;;;;;25.55;14.33;;;;;;;9.92;100.00;97093.06;2184185;81;21096;-85
2022/09/28 01:30:35;;;;;;;27.60;13.78;;;;;;;9.83;100.00;97087.80;2168678;81;21145;-85
2022/09/28 01:33:36;;;;;;;19.15;11.93;;;;;;;9.77;100.00;97086.55;2165072;81;21033;-85
2022/09/28 01:36:37;;;;;;;15.38;10.15;;;;;;;9.68;100.00;97085.50;2170114;81;21125;-85
2022/09/28 01:39:38;;;;;;;10.30;8.83;;;;;;;9.59;100.00;97082.05;2167705;81;21012;-85
2022/09/28 01:42:39;;;;;;;12.25;9.03;;;;;;;9.52;100.00;97086.55;2173682;81;21536;-85
2022/09/28 01:45:39;;;;;;;8.95;7.92;;;;;;;9.48;100.00;97084.05;2181360;81;21025;-85
2022/09/28 01:48:41;;;;;;;8.60;7.70;;;;;;;9.44;100.00;97082.89;2184735;81;21044;-85
2022/09/28 01:51:42;;;;;;;10.35;7.58;;;;;;;9.37;100.00;97081.62;2176987;81;21476;-85
2022/09/28 01:54:43;;;;;;;9.40;8.35;;;;;;;9.29;100.00;97081.36;2168820;81;21048;-86
2022/09/28 01:57:44;;;;;;;8.63;7.75;;;;;;;9.23;100.00;97084.00;2185918;81;21048;-85
2022/09/28 02:00:44;;;;;;;11.12;8.68;;;;;;;9.19;100.00;97088.86;2181740;81;21325;-86
2022/09/28 02:03:45;;;;;;;9.83;8.13;;;;;;;9.14;100.00;97089.98;2171116;81;21013;-85
2022/09/28 02:06:46;;;;;;;13.62;9.45;;;;;;;9.10;100.00;97090.12;2172413;81;20980;-86
2022/09/28 02:09:47;;;;;;;11.57;9.45;;;;;;;9.10;100.00;97085.69;2164754;81;21106;-86
2022/09/28 02:12:47;;;;;;;15.10;8.85;;;;;;;9.10;100.00;97092.72;2185406;81;20980;-85
2022/09/28 02:15:48;;;;;;;10.60;9.50;;;;;;;9.04;100.00;97097.47;2175527;81;21069;-85
2022/09/28 02:18:49;;;;;;;12.90;9.28;;;;;;;9.02;100.00;97092.97;2170428;81;21049;-85
2022/09/28 02:21:50;;;;;;;13.18;8.63;;;;;;;8.99;100.00;97096.80;2173218;81;21032;-85
2022/09/28 02:24:51;;;;;;;11.68;9.40;;;;;;;8.96;100.00;97099.84;2172594;81;21591;-86
2022/09/28 02:27:51;;;;;;;12.37;8.90;;;;;;;8.92;100.00;97103.86;2168046;81;20989;-85
2022/09/28 02:30:52;;;;;;;10.18;9.03;;;;;;;8.92;100.00;97110.89;2170505;81;21488;-85
2022/09/28 02:33:53;;;;;;;12.28;8.78;;;;;;;8.90;100.00;97105.88;2170461;81;21001;-85
2022/09/28 02:36:53;;;;;;;12.03;8.60;;;;;;;8.89;100.00;97110.01;2169731;81;21039;-85
2022/09/28 02:39:54;;;;;;;11.30;9.33;;;;;;;8.87;100.00;97118.05;2175362;81;21019;-85
2022/09/28 02:42:55;;;;;;;17.15;14.53;;;;;;;8.87;100.00;97114.14;2172498;81;21127;-85
2022/09/28 02:45:56;;;;;;;18.77;15.68;;;;;;;8.90;100.00;97120.23;2174158;81;21001;-85
2022/09/28 02:48:57;;;;;;;17.12;11.88;;;;;;;8.92;100.00;97116.91;2166665;81;21138;-85
2022/09/28 02:51:58;;;;;;;15.65;11.25;;;;;;;8.96;100.00;97121.20;2183480;81;21008;-85
2022/09/28 02:54:58;;;;;;;11.70;9.33;;;;;;;8.94;100.00;97116.19;2167158;81;21560;-85
2022/09/28 02:57:59;;;;;;;10.65;8.55;;;;;;;8.95;100.00;97120.40;2170549;82;21481;-85
2022/09/28 03:01:00;;;;;;;10.48;8.68;;;;;;;8.96;100.00;97126.42;2173691;81;21004;-85
2022/09/28 03:04:01;;;;;;;9.60;8.58;;;;;;;8.95;100.00;97123.52;2172659;81;21060;-85
2022/09/28 03:07:02;;;;;;;9.10;7.92;;;;;;;8.97;100.00;97130.16;2172767;81;21477;-85
2022/09/28 03:10:02;;;;;;;9.63;7.72;;;;;;;8.97;100.00;97126.23;2193798;81;21000;-86
2022/09/28 03:13:03;;;;;;;10.00;7.53;;;;;;;8.97;100.00;97127.55;2174370;81;21040;-86
2022/09/28 03:16:04;;;;;;;9.38;6.60;;;;;;;8.96;100.00;97126.42;2173395;81;21548;-86
2022/09/28 03:19:05;;;;;;;9.70;7.12;;;;;;;8.98;100.00;97125.22;2175725;81;21064;-86
2022/09/28 03:22:06;;;;;;;8.93;7.65;;;;;;;8.99;100.00;97121.60;2168649;81;21032;-86
2022/09/28 03:25:07;;;;;;;8.40;6.90;;;;;;;9.02;100.00;97125.59;2178651;81;21075;-85
2022/09/28 03:28:08;;;;;;;9.23;6.30;;;;;;;9.00;100.00;97121.89;2187660;81;21607;-85
2022/09/28 03:31:09;;;;;;;7.72;6.92;;;;;;;9.06;100.00;97123.69;2175391;81;21575;-85
2022/09/28 03:34:09;;;;;;;8.45;6.22;;;;;;;9.07;100.00;97131.81;2169095;81;21555;-85
2022/09/28 03:37:10;;;;;;;7.95;5.95;;;;;;;9.03;100.00;97128.00;2170333;81;21569;-85
2022/09/28 03:40:11;;;;;;;7.17;6.10;;;;;;;9.00;100.00;97120.59;2176049;81;21087;-86
2022/09/28 03:43:11;;;;;;;7.35;6.00;;;;;;;8.99;100.00;97120.30;2167141;81;21057;-86
2022/09/28 03:46:12;;;;;;;7.87;7.17;;;;;;;8.97;100.00;97118.41;2170009;81;22170;-85
2022/09/28 03:49:13;;;;;;;8.73;7.30;;;;;;;8.97;100.00;97112.39;2178242;81;21032;-85
2022/09/28 03:52:14;;;;;;;11.97;8.58;;;;;;;8.94;100.00;97112.78;2170224;81;21028;-87
2022/09/28 03:55:14;;;;;;;14.35;9.30;;;;;;;8.92;100.00;97116.91;2183515;81;21021;-86
2022/09/28 03:58:15;;;;;;;13.43;7.65;;;;;;;8.88;100.00;97111.81;2184410;81;21508;-85
2022/09/28 04:01:16;;;;;;;14.18;8.90;;;;;;;8.82;100.00;97112.13;2197362;80;21091;-85
2022/09/28 04:04:17;;;;;;;9.33;8.23;;;;;;;8.76;100.00;97111.64;2181679;80;21024;-85
2022/09/28 04:07:17;;;;;;;7.50;6.62;;;;;;;8.69;100.00;97116.61;2199320;80;21095;-85
2022/09/28 04:10:18;;;;;;;7.47;6.05;;;;;;;8.60;100.00;97114.73;2200605;80;21575;-84
2022/09/28 04:13:19;;;;;;;8.25;6.35;;;;;;;8.51;100.00;97118.57;2209504;80;21515;-84
2022/09/28 04:16:19;;;;;;;7.40;6.25;;;;;;;8.43;100.00;97119.59;2211251;80;21024;-85
2022/09/28 04:19:20;;;;;;;7.87;6.45;;;;;;;8.39;100.00;97117.58;2208494;80;21128;-86
2022/09/28 04:22:22;;;;;;;9.65;7.45;;;;;;;8.31;100.00;97118.55;2196695;80;21127;-84
2022/09/28 04:25:22;;;;;;;8.23;7.37;;;;;;;8.24;100.00;97115.19;2199559;80;21129;-85
2022/09/28 04:31:42;;;;;;;7.90;7.05;;;;;;;8.14;100.00;97124.72;2204232;80;21013;-84
2022/09/28 04:34:43;;;;;;;7.75;6.53;;;;;;;8.09;100.00;97118.50;2201713;80;21631;-85
2022/09/28 04:37:43;;;;;;;7.10;6.35;;;;;;;8.08;100.00;97125.52;2206742;80;20997;-83
2022/09/28 04:40:44;;;;;;;7.70;6.87;;;;;;;8.08;100.00;97122.11;2205291;80;21132;-84
2022/09/28 04:43:45;;;;;;;8.55;7.37;;;;;;;8.07;100.00;97132.25;2203322;80;21033;-84
2022/09/28 04:46:46;;;;;;;8.68;7.85;;;;;;;8.07;100.00;97133.05;2209362;80;20970;-84
2022/09/28 04:49:47;;;;;;;14.00;8.35;;;;;;;8.13;100.00;97130.11;2206619;80;21002;-85
2022/09/28 04:52:47;;;;;;;10.28;9.28;;;;;;;8.18;100.00;97134.23;2209221;80;21013;-83
2022/09/28 04:55:48;;;;;;;12.93;9.55;;;;;;;8.28;100.00;97130.70;2206168;80;21057;-84
2022/09/28 04:58:49;;;;;;;10.25;8.55;;;;;;;8.42;100.00;97132.33;2209083;80;21000;-84
2022/09/28 05:01:52;;;;;;;9.15;8.10;;;;;;;8.51;100.00;97137.63;2206069;80;21552;-85
2022/09/28 05:04:55;;;;;;;9.83;8.30;;;;;;;8.60;100.00;97139.52;2209643;80;21034;-84
2022/09/28 05:07:55;;;;;;;9.18;7.37;;;;;;;8.67;100.00;97138.97;2209425;80;21096;-84
2022/09/28 05:10:56;;;;;;;11.33;8.78;;;;;;;8.73;100.00;97137.36;2203555;80;20966;-85
2022/09/28 05:13:56;;;;;;;11.73;8.75;;;;;;;8.79;100.00;97139.16;2197409;80;21072;-85
2022/09/28 05:16:57;;;;;;;13.30;9.55;;;;;;;8.88;100.00;97131.90;2199600;80;21064;-85
2022/09/28 05:19:59;;;;;;;11.35;9.15;;;;;;;8.94;100.00;97137.07;2210902;80;21171;-85
2022/09/28 05:23:00;;;;;;;13.22;10.03;;;;;;;9.00;100.00;97127.12;2206378;80;21105;-83
2022/09/28 05:26:01;;;;;;;12.80;10.28;;;;;;;9.05;100.00;97133.00;2206965;80;21053;-86
2022/09/28 05:29:01;;;;;;;12.65;9.50;;;;;;;9.08;100.00;97135.22;2207326;80;21084;-86
2022/09/28 05:32:02;;;;;;;9.25;8.25;;;;;;;9.13;100.00;97132.77;2200517;80;21164;-86
2022/09/28 05:35:05;;;;;;;10.60;8.80;;;;;;;9.21;100.00;97127.31;2201046;80;21065;-89
2022/09/28 05:38:06;;;;;;;14.45;9.43;;;;;;;9.23;100.00;97125.28;2206385;80;21037;-85
2022/09/28 05:41:06;;;;;;;13.65;9.83;;;;;;;9.28;100.00;97129.89;2206345;80;21518;-85
2022/09/28 05:44:07;;;;;;;10.23;9.23;;;;;;;9.32;100.00;97134.98;2177454;80;21529;-85
2022/09/28 05:47:08;;;;;;;12.55;9.18;;;;;;;9.34;100.00;97140.31;2201872;80;20969;-86
2022/09/28 05:50:10;;;;;;;13.88;10.13;;;;;;;9.34;100.00;97140.31;2210099;80;21100;-85
2022/09/28 05:53:11;;;;;;;16.15;10.88;;;;;;;9.39;100.00;97139.16;2212521;80;21008;-85
2022/09/28 05:56:12;;;;;;;14.43;11.93;;;;;;;9.48;100.00;97138.92;2209615;80;20938;-85
2022/09/28 05:59:13;;;;;;;17.57;12.33;;;;;;;9.53;100.00;97146.94;2204243;80;20998;-85
2022/09/28 06:02:13;;;;;;;16.12;11.90;;;;;;;9.55;100.00;97147.02;2207469;80;20998;-85
2022/09/28 06:05:14;;;;;;;16.35;13.85;;;;;;;9.58;100.00;97143.17;2210689;80;20990;-85
2022/09/28 06:08:15;;;;;;;20.40;14.43;;;;;;;9.62;100.00;97133.41;2209056;80;20985;-85
2022/09/28 06:11:15;;;;;;;21.25;15.98;;;;;;;9.73;100.00;97140.27;2206484;81;20957;-84
2022/09/28 06:14:16;;;;;;;21.70;15.53;;;;;;;9.89;100.00;97133.22;2209811;81;20961;-82
2022/09/28 06:17:17;;;;;;;19.82;15.83;;;;;;;10.05;100.00;97143.63;2209629;80;21044;-83
2022/09/28 06:20:18;;;;;;;26.45;15.35;;;;;;;10.16;100.00;97141.14;2206918;80;21028;-82
2022/09/28 06:23:18;;;;;;;16.60;13.95;;;;;;;10.36;100.00;97150.66;2203481;80;21006;-83
2022/09/28 06:26:19;;;;;;;21.40;14.60;;;;;;;10.57;100.00;97146.30;2205440;80;21021;-82
2022/09/28 06:29:20;;;;;;;16.73;13.78;;;;;;;10.69;100.00;97151.61;2199926;80;20981;-83
2022/09/28 06:32:21;;;;;;;17.57;12.98;;;;;;;10.75;100.00;97145.52;2206432;80;21041;-82
2022/09/28 06:35:21;;;;;;;17.57;14.78;;;;;;;10.80;100.00;97152.22;2201035;80;21060;-82
2022/09/28 06:38:22;;;;;;;21.90;15.98;;;;;;;10.87;100.00;97144.27;2200810;80;21485;-83
2022/09/28 06:41:23;;;;;;;18.80;14.03;;;;;;;10.97;100.00;97157.16;2211623;80;20985;-83
2022/09/28 06:44:24;;;;;;;17.25;13.48;;;;;;;11.00;100.00;97151.98;2204753;80;20966;-82
2022/09/28 06:47:25;;;;;;;16.80;13.83;;;;;;;10.97;100.00;97149.78;2204481;80;21067;-82
2022/09/28 06:50:26;;;;;;;17.23;15.13;;;;;;;10.98;100.00;97148.80;2209233;80;21044;-84
2022/09/28 06:53:27;;;;;;;16.25;13.30;;;;;;;10.90;100.00;97152.50;2206595;80;21009;-85
2022/09/28 06:56:28;;;;;;;16.15;13.75;;;;;;;10.86;100.00;97155.77;2209847;81;20958;-84
2022/09/28 06:59:30;;;;;;;19.70;13.78;;;;;;;10.88;100.00;97152.41;2204689;80;21521;-85
2022/09/28 07:02:31;;;;;;;18.55;15.50;;;;;;;11.00;100.00;97152.78;2210041;80;21136;-84
2022/09/28 07:05:33;;;;;;;17.20;13.75;;;;;;;11.16;100.00;97154.01;2203993;80;21468;-85
2022/09/28 07:08:34;;;;;;;16.57;13.20;;;;;;;11.35;100.00;97147.71;2207601;80;21081;-85
2022/09/28 07:11:35;;;;;;;13.08;10.82;;;;;;;11.54;100.00;97143.22;2204461;80;21001;-86
2022/09/28 07:14:35;;;;;;;11.73;9.75;;;;;;;11.67;100.00;97151.39;2209406;80;20986;-83
2022/09/28 07:17:39;;;;;;;14.18;11.35;;;;;;;11.74;100.00;97141.61;2211670;80;20966;-83
2022/09/28 07:20:40;;;;;;;15.15;11.60;;;;;;;11.81;100.00;97141.04;2205589;80;21021;-84
2022/09/28 07:23:40;;;;;;;14.43;10.43;;;;;;;11.88;100.00;97141.71;2209184;80;21089;-83
2022/09/28 07:26:44;;;;;;;12.80;10.32;;;;;;;11.96;100.00;97145.83;2207382;80;21069;-87
2022/09/28 07:29:44;;;;;;;12.93;10.72;;;;;;;11.99;100.00;97149.85;2208256;80;21018;-85
2022/09/28 07:32:45;;;;;;;11.35;9.75;;;;;;;12.07;100.00;97141.63;2207378;80;21603;-86
2022/09/28 07:35:46;;;;;;;10.00;8.78;;;;;;;12.07;100.00;97150.32;2204103;80;21556;-84
2022/09/28 07:38:47;;;;;;;9.65;8.58;;;;;;;12.12;100.00;97149.11;2185881;80;21588;-85
2022/09/28 07:41:48;;;;;;;8.75;7.90;;;;;;;12.15;100.00;97146.54;2207651;80;20993;-84
2022/09/28 07:44:49;;;;;;;8.90;5.08;;;;;;;12.17;100.00;97150.55;2171501;81;21501;-84
2022/09/28 07:47:49;;;;;;;4.70;4.28;;;;;;;12.18;100.00;97156.09;2206225;80;21041;-83
2022/09/28 07:50:51;;;;;;;4.17;3.77;;;;;;;12.18;100.00;97154.77;2205094;80;20965;-83
2022/09/28 07:53:53;;;;;;;3.50;3.20;;;;;;;12.28;100.00;97152.09;2205804;80;21081;-82
2022/09/28 07:56:53;;;;;;;4.35;3.67;;;;;;;12.27;100.00;97157.86;2209680;80;21068;-87
2022/09/28 07:59:54;;;;;;;6.92;3.55;;;;;;;12.19;100.00;97150.33;2207379;80;22173;-84
2022/09/28 08:02:55;;;;;;;4.22;3.92;;;;;;;12.03;100.00;97159.65;2197530;80;21535;-84
2022/09/28 08:05:56;;;;;;;5.67;5.05;;;;;;;12.01;100.00;97155.66;2210791;80;21528;-84
2022/09/28 08:08:58;;;;;;;5.92;5.25;;;;;;;12.05;100.00;97157.59;2207894;80;21140;-84
2022/09/28 08:11:59;;;;;;;6.42;5.20;;;;;;;12.06;100.00;97153.14;2206283;80;21090;-85
2022/09/28 08:15:00;;;;;;;7.10;6.03;;;;;;;12.13;100.00;97145.97;2207623;80;20991;-86
2022/09/28 08:18:00;;;;;;;6.10;5.50;;;;;;;12.31;100.00;97149.80;2208199;80;21013;-84
2022/09/28 08:24:22;;;;;;;12.23;5.33;;;;;;;12.49;100.00;97148.38;2206280;80;21537;-84
2022/09/28 08:27:23;;;;;;;5.35;4.95;;;;;;;12.57;100.00;97147.23;2204529;80;21297;-85
2022/09/28 08:30:23;;;;;;;7.12;5.67;;;;;;;12.70;100.00;97150.12;2207345;80;21491;-84
2022/09/28 08:33:24;;;;;;;5.28;4.78;;;;;;;12.88;100.00;97150.48;2209760;81;21984;-83
2022/09/28 08:36:27;;;;;;;7.17;5.22;;;;;;;13.09;100.00;97152.52;2206205;80;21069;-85
2022/09/28 08:39:27;;;;;;;6.50;5.28;;;;;;;13.39;100.00;97153.62;2209608;80;21089;-83
2022/09/28 08:42:28;;;;;;;7.10;4.30;;;;;;;13.64;100.00;97152.78;2206263;80;21041;-85
2022/09/28 08:45:29;;;;;;;4.50;3.50;;;;;;;13.94;100.00;97153.01;2209172;80;21092;-84
2022/09/28 08:48:47;;;;;;;3.42;3.17;;;;;;;14.13;100.00;97160.95;2208747;80;21074;-86
2022/09/28 08:51:48;;;;;;;4.80;3.67;;;;;;;14.18;100.00;97150.51;2205721;80;21047;-84
2022/09/28 08:54:49;;;;;;;4.00;3.30;;;;;;;14.11;100.00;97151.70;2205829;80;21029;-86
2022/09/28 08:57:49;;;;;;;4.15;3.45;;;;;;;14.03;100.00;97159.99;2209524;81;21016;-86
2022/09/28 09:00:53;;;;;;;6.10;3.87;;;;;;;14.08;100.00;97164.00;2206401;80;21001;-86
2022/09/28 09:03:56;;;;;;;5.17;3.10;;;;;;;14.20;100.00;97160.79;2165850;81;21730;-86
2022/09/28 09:06:57;;;;;;;4.72;3.77;;;;;;;14.24;100.00;97164.53;2208522;80;21104;-85
2022/09/28 09:09:57;;;;;;;5.15;3.15;;;;;;;14.14;100.00;97168.32;2202232;80;21018;-85
2022/09/28 09:12:59;;;;;;;5.22;4.20;;;;;;;14.16;100.00;97163.09;2208222;80;21009;-86
2022/09/28 09:16:00;;;;;;;4.42;3.22;;;;;;;14.16;100.00;97167.03;2206746;80;21077;-86
2022/09/28 09:19:01;;;;;;;4.12;3.15;;;;;;;14.20;100.00;97173.95;2203887;80;21025;-84
2022/09/28 09:22:04;;;;;;;3.05;2.85;;;;;;;14.22;100.00;97167.41;2203111;80;21013;-86
2022/09/28 09:25:04;;;;;;;2.85;2.58;;;;;;;14.13;100.00;97164.89;2211437;80;20990;-85
2022/09/28 09:28:06;;;;;;;3.52;2.83;;;;;;;13.94;100.00;97164.33;2210489;81;21009;-85
2022/09/28 09:31:07;;;;;;;3.00;2.72;;;;;;;13.77;100.00;97166.14;2207319;80;21010;-83
2022/09/28 09:34:08;;;;;;;3.22;2.70;;;;;;;13.59;100.00;97171.08;2208673;80;20984;-80
2022/09/28 09:37:09;;;;;;;4.70;2.65;;;;;;;13.48;100.00;97169.31;2203656;80;21536;-83
2022/09/28 09:40:10;;;;;;;3.00;2.67;;;;;;;13.37;100.00;97161.76;2205505;80;21013;-80
2022/09/28 09:43:11;;;;;;;4.08;2.60;;;;;;;13.31;100.00;97157.95;2202747;80;21603;-81
2022/09/28 09:46:12;;;;;;;3.55;2.15;;;;;;;13.26;100.00;97166.55;2209421;80;21050;-81
2022/09/28 09:49:13;;;;;;;6.05;4.58;;;;;;;13.35;100.00;97167.77;2205991;80;21032;-81
2022/09/28 09:52:14;;;;;;;4.67;3.42;;;;;;;13.58;100.00;97173.44;2209621;80;21025;-82
2022/09/28 09:55:14;;;;;;;4.12;3.67;;;;;;;13.84;100.00;97166.80;2203311;80;21558;-81
2022/09/28 09:58:15;;;;;;;3.22;2.60;;;;;;;14.09;100.00;97169.57;2203924;80;21064;-80
2022/09/28 10:01:16;;;;;;;3.45;2.80;;;;;;;14.32;100.00;97169.91;2209522;80;20958;-81
2022/09/28 10:04:17;;;;;;;2.58;2.35;;;;;;;14.43;100.00;97160.59;2204414;80;21056;-80
2022/09/28 10:07:18;;;;;;;2.37;2.20;;;;;;;14.40;100.00;97167.67;2208496;80;21013;-83
2022/09/28 10:10:19;;;;;;;10.78;2.58;;;;;;;14.34;100.00;97166.52;2209829;81;20973;-84
2022/09/28 10:13:20;;;;;;;3.27;2.47;;;;;;;14.38;100.00;97162.38;2206498;80;20973;-82
2022/09/28 10:16:21;;;;;;;3.47;2.80;;;;;;;14.35;100.00;97165.47;2207095;80;21039;-83
2022/09/28 10:19:21;;;;;;;7.75;5.08;;;;;;;14.27;100.00;97163.27;2210063;81;21480;-82
2022/09/28 10:22:22;;;;;;;12.70;8.38;;;;;;;14.22;100.00;97176.62;2204752;80;21483;-81
2022/09/28 10:25:23;;;;;;;9.80;7.58;;;;;;;14.22;100.00;97173.98;2204367;80;21071;-81
2022/09/28 10:28:23;;;;;;;3.83;3.52;;;;;;;14.33;100.00;97174.94;2208171;80;21071;-82
2022/09/28 10:31:24;;;;;;;3.72;2.95;;;;;;;14.54;100.00;97169.50;2206287;80;21018;-82
2022/09/28 10:34:25;;;;;;;15.45;8.60;;;;;;;14.75;100.00;97173.20;2200390;80;21068;-82
2022/09/28 10:37:26;;;;;;;6.87;5.28;;;;;;;14.98;100.00;97181.39;2210724;81;20922;-84
2022/09/28 10:40:29;;;;;;;12.58;8.48;;;;;;;15.13;100.00;97167.09;2201362;80;21008;-82
2022/09/28 10:43:32;;;;;;;10.85;7.15;;;;;;;15.34;100.00;97174.70;2202213;80;21585;-82
2022/09/28 10:46:33;;;;;;;14.20;7.95;;;;;;;15.42;100.00;97170.31;2212039;80;21573;-85
2022/09/28 10:49:34;;;;;;;9.63;6.17;;;;;;;15.45;100.00;97171.65;2202006;80;20973;-83
2022/09/28 10:52:35;;;;;;;11.25;6.42;;;;;;;15.48;100.00;97161.42;2198379;80;21085;-83
2022/09/28 10:55:35;;;;;;;5.85;4.12;;;;;;;15.53;100.00;97157.50;2206899;80;21029;-83
2022/09/28 10:58:37;;;;;;;5.12;2.65;;;;;;;15.48;100.00;97154.83;2208395;80;20989;-85
2022/09/28 11:01:37;;;;;;;1.85;1.57;;;;;;;15.34;100.00;97149.66;2200875;80;21163;-84
2022/09/28 11:04:38;;;;;;;1.60;1.50;;;;;;;15.19;100.00;97142.91;2203678;80;21041;-84
2022/09/28 11:07:39;;;;;;;2.60;1.87;;;;;;;15.07;100.00;97139.06;2209800;80;21036;-84
2022/09/28 11:10:40;;;;;;;3.90;1.77;;;;;;;14.97;100.00;97136.31;2204091;80;21049;-82
2022/09/28 11:13:41;;;;;;;2.58;1.77;;;;;;;14.83;100.00;97130.63;2203533;80;21045;-84
2022/09/28 11:16:41;;;;;;;3.83;2.05;;;;;;;14.79;100.00;97134.77;2207288;80;20986;-84
2022/09/28 11:19:42;;;;;;;5.10;3.83;;;;;;;14.75;100.00;97134.48;2209319;80;21600;-86
2022/09/28 11:22:45;;;;;;;3.98;2.25;;;;;;;14.84;100.00;97131.42;2206653;80;21037;-84
2022/09/28 11:25:45;;;;;;;3.25;2.12;;;;;;;14.92;100.00;97125.20;2201859;80;21112;-84
2022/09/28 11:28:46;;;;;;;2.15;2.05;;;;;;;14.98;100.00;97128.68;2205459;80;20974;-85
2022/09/28 11:31:47;;;;;;;2.15;1.98;;;;;;;15.16;100.00;97122.30;2207265;80;21092;-85
2022/09/28 11:34:47;;;;;;;3.12;1.32;;;;;;;15.34;100.00;97132.52;2210639;80;21005;-85
2022/09/28 11:37:48;;;;;;;2.72;1.72;;;;;;;15.46;100.00;97129.23;2204797;80;22163;-86
2022/09/28 11:40:49;;;;;;;3.83;1.80;;;;;;;15.47;100.00;97133.98;2207168;80;21160;-87
2022/09/28 11:43:50;;;;;;;1.35;1.25;;;;;;;15.47;100.00;97141.37;2207572;80;21033;-86
2022/09/28 11:46:52;;;;;;;1.70;1.60;;;;;;;15.48;100.00;97130.30;2205195;80;21037;-88
2022/09/28 11:49:54;;;;;;;3.15;1.15;;;;;;;15.50;100.00;97132.16;2206028;80;21051;-85
2022/09/28 11:52:55;;;;;;;3.30;1.20;;;;;;;15.62;100.00;97130.18;2213898;80;21560;-85
2022/09/28 11:55:56;;;;;;;1.70;1.27;;;;;;;15.67;100.00;97124.17;2208759;80;21013;-89
2022/09/28 11:58:57;;;;;;;1.27;0.90;;;;;;;15.62;100.00;97116.47;2212281;80;21033;-88
2022/09/28 12:01:58;;;;;;;2.12;1.07;;;;;;;15.62;100.00;97114.35;2208685;80;21068;-87
2022/09/28 12:04:59;;;;;;;3.15;1.17;;;;;;;15.53;100.00;97121.09;2207071;80;21037;-88
2022/09/28 12:07:59;;;;;;;0.80;0.80;;;;;;;15.48;100.00;97118.42;2206579;80;20969;-88
2022/09/28 12:11:00;;;;;;;2.80;0.90;;;;;;;15.50;100.00;97115.01;2204382;80;21050;-87
2022/09/28 12:14:03;;;;;;;1.50;1.40;;;;;;;15.54;100.00;97117.41;2202315;80;21023;-88
2022/09/28 12:17:04;;;;;;;1.17;1.02;;;;;;;15.54;100.00;97108.97;2208512;80;21029;-83
2022/09/28 12:20:04;;;;;;;1.60;1.20;;;;;;;15.48;100.00;97108.67;2208274;80;21029;-84
2022/09/28 12:23:05;;;;;;;1.60;0.90;;;;;;;15.44;100.00;97107.55;2208456;80;21548;-84
2022/09/28 12:26:06;;;;;;;0.93;0.93;;;;;;;15.41;100.00;97097.52;2210055;80;20997;-85
2022/09/28 12:29:07;;;;;;;1.02;1.00;;;;;;;15.45;100.00;97094.64;2210025;81;20994;-83
2022/09/28 12:32:07;;;;;;;1.72;1.20;;;;;;;15.51;100.00;97084.95;2200383;80;20993;-86
2022/09/28 12:35:08;;;;;;;1.32;1.07;;;;;;;15.67;100.00;97090.66;2210105;80;21075;-83
2022/09/28 12:38:10;;;;;;;1.40;1.30;;;;;;;15.79;100.00;97089.97;2204863;80;21068;-85
2022/09/28 12:41:10;;;;;;;2.10;1.07;;;;;;;15.78;100.00;97086.27;2207593;80;21066;-86
2022/09/28 12:44:12;;;;;;;2.27;1.90;;;;;;;15.71;100.00;97076.44;2197443;80;21079;-86
2022/09/28 12:47:13;;;;;;;3.12;2.75;;;;;;;15.67;100.00;97070.88;2210106;80;21005;-87
2022/09/28 12:50:14;;;;;;;2.45;0.98;;;;;;;15.66;100.00;97069.81;2204667;80;21088;-83
2022/09/28 12:53:15;;;;;;;2.35;0.80;;;;;;;15.80;100.00;97070.44;2206391;80;21064;-84
2022/09/28 12:56:18;;;;;;;1.45;0.60;;;;;;;15.99;100.00;97064.24;2201448;80;21572;-85
2022/09/28 12:59:18;;;;;;;0.80;0.62;;;;;;;16.15;100.00;97069.11;2208699;80;21068;-85
2022/09/28 13:02:19;;;;;;;1.75;0.60;;;;;;;16.31;100.00;97068.68;2201474;80;21591;-87
2022/09/28 13:05:20;;;;;;;0.70;0.70;;;;;;;16.38;100.00;97069.25;2209578;80;20974;-88
2022/09/28 13:08:20;;;;;;;1.72;0.60;;;;;;;16.45;100.00;97061.34;2206316;80;21017;-83
2022/09/28 13:11:21;;;;;;;3.05;0.90;;;;;;;16.49;100.00;97057.68;2209865;81;21005;-84
2022/09/28 13:14:22;;;;;;;2.98;0.85;;;;;;;16.56;100.00;97058.25;2166362;81;21026;-85
2022/09/28 13:17:24;;;;;;;2.25;0.50;;;;;;;16.58;100.00;97055.34;2206945;80;21532;-84
2022/09/28 13:20:25;;;;;;;2.58;0.57;;;;;;;16.49;100.00;97047.91;2209198;80;21100;-85
2022/09/28 13:23:26;;;;;;;1.20;0.80;;;;;;;16.38;100.00;97044.95;2204792;80;21549;-85
2022/09/28 13:26:26;;;;;;;1.30;0.70;;;;;;;16.24;100.00;97049.09;2192440;80;21024;-85
2022/09/28 13:29:27;;;;;;;2.33;0.62;;;;;;;16.11;100.00;97053.52;2205984;80;21081;-84
2022/09/28 13:32:30;;;;;;;1.07;0.75;;;;;;;16.01;100.00;97052.14;2209409;80;21045;-84
2022/09/28 13:35:32;;;;;;;0.82;0.82;;;;;;;15.90;100.00;97047.29;2203013;80;21077;-84
2022/09/28 13:38:36;;;;;;;2.37;0.50;;;;;;;15.78;100.00;97043.52;2212297;80;21101;-85
2022/09/28 13:41:36;;;;;;;1.70;0.60;;;;;;;15.77;100.00;97039.81;2209835;81;21045;-85
2022/09/28 13:44:37;;;;;;;1.70;0.37;;;;;;;15.81;100.00;97031.66;2206225;80;21045;-87
2022/09/28 13:47:38;;;;;;;0.55;0.45;;;;;;;15.80;100.00;97028.75;2206660;80;21524;-83
2022/09/28 13:50:39;;;;;;;2.35;0.60;;;;;;;15.77;100.00;97033.22;2203314;80;21059;-83
2022/09/28 13:53:39;;;;;;;1.02;0.70;;;;;;;15.80;100.00;97034.02;2204962;80;21012;-85
2022/09/28 13:56:40;;;;;;;1.98;0.68;;;;;;;15.81;100.00;97031.13;2203884;80;21002;-86
2022/09/28 13:59:41;;;;;;;1.05;0.82;;;;;;;15.86;100.00;97025.11;2209847;81;20997;-86
2022/09/28 14:02:41;;;;;;;3.52;1.65;;;;;;;15.85;100.00;97028.27;2207313;80;21017;-88
2022/09/28 14:05:44;;;;;;;1.15;0.90;;;;;;;15.84;100.00;97032.48;2207111;80;21485;-88